createdAt,value
2022-12-04T00:02:36.911Z,1.10
2022-12-04T00:06:38.657Z,1.60
2022-12-04T00:10:43.914Z,1.20
2022-12-04T00:15:23.512Z,1.30
2022-12-04T00:19:07.300Z,1.10
2022-12-04T00:23:09.040Z,1.10
2022-12-04T00:27:10.784Z,1.40
2022-12-04T00:31:15.276Z,1.70
2022-12-04T00:35:17.073Z,1.20
2022-12-04T00:39:18.726Z,1.40
2022-12-04T00:43:20.858Z,1.20
2022-12-04T00:47:22.546Z,1.50
2022-12-04T00:51:25.144Z,1.50
2022-12-04T00:55:27.264Z,1.30
2022-12-04T00:59:29.089Z,1.40
2022-12-04T01:03:31.208Z,1.30
2022-12-04T01:07:33.104Z,1.90
2022-12-04T01:11:35.076Z,1.70
2022-12-04T01:15:41.383Z,1.60
2022-12-04T01:19:43.063Z,2.30
2022-12-04T01:23:44.781Z,2.20
2022-12-04T01:27:46.535Z,2.60
2022-12-04T01:31:48.254Z,2.50
2022-12-04T01:35:54.977Z,2.60
2022-12-04T01:39:57.011Z,2.40
2022-12-04T01:44:12.240Z,2.40
2022-12-04T01:48:19.839Z,2.00
2022-12-04T01:52:25.740Z,2.10
2022-12-04T01:56:43.068Z,2.10
2022-12-04T02:00:48.517Z,1.70
2022-12-04T02:04:53.597Z,2.10
2022-12-04T02:08:55.377Z,2.60
2022-12-04T02:13:10.622Z,2.30
2022-12-04T02:17:34.217Z,2.50
2022-12-04T02:21:44.636Z,2.30
2022-12-04T02:26:08.138Z,2.80
2022-12-04T02:30:12.320Z,2.70
2022-12-04T02:34:18.754Z,2.30
2022-12-04T02:38:57.822Z,2.00
2022-12-04T02:43:16.397Z,1.70
2022-12-04T02:47:21.667Z,1.70
2022-12-04T02:51:24.141Z,2.60
2022-12-04T02:55:53.523Z,2.60
2022-12-04T02:59:57.461Z,2.80
2022-12-04T03:04:08.022Z,2.30
2022-12-04T03:08:17.588Z,2.20
2022-12-04T03:12:28.108Z,2.20
2022-12-04T03:16:33.040Z,1.70
2022-12-04T03:20:36.611Z,1.40
2022-12-04T03:24:41.409Z,1.50
2022-12-04T03:28:58.297Z,1.80
2022-12-04T03:33:01.868Z,1.90
2022-12-04T03:37:32.762Z,1.70
2022-12-04T03:41:49.922Z,1.80
2022-12-04T03:45:53.450Z,1.60
2022-12-04T03:50:03.812Z,1.60
2022-12-04T03:54:12.440Z,1.40
2022-12-04T03:58:20.132Z,1.40
2022-12-04T04:02:21.951Z,1.40
2022-12-04T04:06:26.320Z,1.70
2022-12-04T04:10:27.997Z,1.60
2022-12-04T04:15:04.465Z,1.60
2022-12-04T04:19:26.185Z,1.70
2022-12-04T04:23:50.680Z,1.90
2022-12-04T04:27:56.348Z,1.70
2022-12-04T04:32:09.220Z,1.50
2022-12-04T04:36:18.775Z,1.20
2022-12-04T04:40:41.539Z,1.10
2022-12-04T04:44:47.994Z,1.30
2022-12-04T04:48:52.953Z,2.00
2022-12-04T04:53:00.085Z,1.50
2022-12-04T04:57:02.056Z,1.50
2022-12-04T05:01:06.182Z,2.00
2022-12-04T05:05:08.382Z,1.20
2022-12-04T05:09:10.114Z,1.50
2022-12-04T05:13:12.566Z,1.30
2022-12-04T05:17:21.256Z,1.60
2022-12-04T05:21:22.937Z,1.50
2022-12-04T05:25:25.049Z,1.60
2022-12-04T05:29:27.822Z,1.60
2022-12-04T05:33:32.112Z,1.50
2022-12-04T05:37:37.259Z,1.50
2022-12-04T05:41:38.956Z,1.40
2022-12-04T05:45:40.623Z,1.30
2022-12-04T05:49:42.325Z,1.30
2022-12-04T05:53:44.053Z,1.30
2022-12-04T05:57:45.678Z,1.70
2022-12-04T06:01:47.656Z,2.00
2022-12-04T06:05:49.391Z,1.80
2022-12-04T06:09:51.077Z,1.60
2022-12-04T06:13:52.822Z,1.40
2022-12-04T06:17:54.518Z,1.40
2022-12-04T06:21:56.196Z,1.40
2022-12-04T06:26:00.842Z,1.30
2022-12-04T06:30:07.688Z,1.10
2022-12-04T06:34:10.885Z,1.30
2022-12-04T06:38:13.253Z,1.40
2022-12-04T06:42:15.931Z,1.40
2022-12-04T06:46:25.877Z,1.10
2022-12-04T06:50:27.613Z,1.00
2022-12-04T06:54:29.354Z,1.20
2022-12-04T06:58:31.339Z,1.20
2022-12-04T07:02:33.127Z,1.20
2022-12-04T07:06:36.948Z,0.80
2022-12-04T07:10:39.002Z,0.70
2022-12-04T07:14:40.739Z,0.80
2022-12-04T07:18:42.728Z,0.70
2022-12-04T07:22:44.416Z,0.90
2022-12-04T07:26:46.403Z,0.90
2022-12-04T07:30:48.200Z,0.80
2022-12-04T07:34:49.898Z,0.90
2022-12-04T07:38:52.408Z,1.00
2022-12-04T07:42:54.102Z,0.70
2022-12-04T07:46:55.757Z,0.80
2022-12-04T07:51:05.285Z,0.80
2022-12-04T07:55:07.596Z,0.80
2022-12-04T07:59:09.248Z,0.70
2022-12-04T08:03:10.960Z,0.70
2022-12-04T08:07:12.702Z,0.70
2022-12-04T08:11:17.476Z,0.60
2022-12-04T08:15:19.076Z,0.30
2022-12-04T08:19:21.613Z,1.00
2022-12-04T08:23:23.313Z,2.00
2022-12-04T08:27:25.006Z,2.90
2022-12-04T08:31:29.141Z,3.40
2022-12-04T08:35:31.028Z,3.40
2022-12-04T08:39:32.698Z,2.80
2022-12-04T08:43:35.051Z,3.60
2022-12-04T08:47:36.777Z,3.00
2022-12-04T08:51:38.526Z,3.40
2022-12-04T08:55:40.235Z,3.10
2022-12-04T08:59:42.477Z,2.70
2022-12-04T09:03:44.914Z,3.00
2022-12-04T09:07:46.707Z,2.50
2022-12-04T09:11:48.408Z,2.00
2022-12-04T09:15:50.087Z,2.10
2022-12-04T09:19:53.721Z,2.70
2022-12-04T09:23:57.157Z,2.00
2022-12-04T09:27:58.895Z,2.40
2022-12-04T09:32:00.593Z,2.40
2022-12-04T09:36:03.316Z,1.90
2022-12-04T09:40:06.401Z,2.20
2022-12-04T09:44:11.077Z,2.70
2022-12-04T09:48:13.121Z,2.60
2022-12-04T09:52:56.261Z,3.10
2022-12-04T09:57:04.927Z,5.00
2022-12-04T10:01:07.091Z,3.00
2022-12-04T10:05:21.620Z,4.00
2022-12-04T10:09:31.217Z,3.50
2022-12-04T10:13:56.675Z,3.60
2022-12-04T10:18:07.007Z,3.60
2022-12-04T10:22:27.956Z,4.10
2022-12-04T10:26:35.737Z,3.70
2022-12-04T10:30:38.215Z,4.10
2022-12-04T10:34:45.483Z,4.40
2022-12-04T10:38:59.764Z,4.20
2022-12-04T10:43:11.922Z,4.50
2022-12-04T10:47:23.977Z,4.10
2022-12-04T10:51:26.182Z,5.50
2022-12-04T10:55:34.854Z,4.30
2022-12-04T10:59:49.688Z,3.80
2022-12-04T11:03:57.871Z,4.40
2022-12-04T11:08:01.396Z,5.70
2022-12-04T11:12:28.343Z,3.50
2022-12-04T11:16:39.535Z,4.70
2022-12-04T11:20:49.068Z,4.40
2022-12-04T11:24:54.594Z,4.70
2022-12-04T11:28:58.616Z,4.70
2022-12-04T11:33:00.579Z,4.50
2022-12-04T11:37:02.554Z,5.40
2022-12-04T11:41:06.436Z,5.60
2022-12-04T11:45:23.300Z,7.40
2022-12-04T11:49:26.455Z,14.00
2022-12-04T11:53:43.290Z,12.60
2022-12-04T11:57:51.662Z,10.00
2022-12-04T12:02:30.692Z,10.20
2022-12-04T12:11:17.072Z,10.30
2022-12-04T12:15:37.630Z,11.80
2022-12-04T12:20:15.660Z,7.00
2022-12-04T12:24:30.672Z,5.60
2022-12-04T12:28:47.596Z,4.40
2022-12-04T12:32:58.727Z,5.90
2022-12-04T12:37:10.974Z,6.30
2022-12-04T12:41:15.757Z,5.20
2022-12-04T12:45:41.987Z,6.40
2022-12-04T12:53:58.532Z,10.30
2022-12-04T12:58:06.659Z,10.00
2022-12-04T13:02:18.450Z,13.30
2022-12-04T13:06:26.360Z,13.90
2022-12-04T13:10:37.882Z,10.60
2022-12-04T13:14:42.430Z,9.60
2022-12-04T13:18:51.979Z,6.80
2022-12-04T13:23:42.260Z,8.60
2022-12-04T13:28:08.366Z,11.00
2022-12-04T13:32:32.182Z,10.40
2022-12-04T13:36:43.719Z,10.40
2022-12-04T13:40:51.687Z,12.20
2022-12-04T13:44:59.055Z,12.20
2022-12-04T13:53:32.356Z,17.40
2022-12-04T13:57:33.986Z,13.80
2022-12-04T14:01:46.189Z,12.00
2022-12-04T14:05:48.112Z,8.00
2022-12-04T14:09:53.401Z,8.90
2022-12-04T14:13:57.133Z,10.60
2022-12-04T14:18:07.825Z,11.90
2022-12-04T14:22:30.092Z,11.20
2022-12-04T14:26:55.833Z,12.20
2022-12-04T14:31:04.570Z,10.80
2022-12-04T14:35:14.049Z,9.30
2022-12-04T14:39:44.172Z,9.80
2022-12-04T14:43:49.813Z,9.30
2022-12-04T14:48:39.534Z,9.90
2022-12-04T14:52:46.670Z,9.40
2022-12-04T14:57:16.899Z,5.10
2022-12-04T15:01:28.357Z,5.10
2022-12-04T15:05:31.507Z,7.70
2022-12-04T15:09:51.669Z,10.50
2022-12-04T15:17:58.840Z,12.70
2022-12-04T15:22:00.639Z,11.70
2022-12-04T15:26:05.818Z,8.70
2022-12-04T15:30:14.283Z,12.50
2022-12-04T15:34:17.653Z,12.10
2022-12-04T15:38:19.592Z,13.60
2022-12-04T15:42:24.429Z,14.90
2022-12-04T15:46:31.969Z,15.20
2022-12-04T15:50:33.779Z,14.40
2022-12-04T15:54:36.532Z,11.20
2022-12-04T15:58:41.703Z,10.40
2022-12-04T16:02:43.535Z,11.80
2022-12-04T16:06:50.204Z,12.40
2022-12-04T16:11:21.979Z,13.00
2022-12-04T16:15:25.174Z,14.00
2022-12-04T16:19:36.407Z,12.90
2022-12-04T16:23:39.177Z,10.90
2022-12-04T16:27:40.932Z,8.20
2022-12-04T16:31:42.699Z,7.90
2022-12-04T16:35:44.666Z,11.30
2022-12-04T16:39:46.456Z,11.80
2022-12-04T16:43:57.393Z,15.80
2022-12-04T16:47:59.204Z,16.70
2022-12-04T16:52:00.879Z,15.60
2022-12-04T16:56:02.485Z,8.80
2022-12-04T17:00:04.528Z,9.70
2022-12-04T17:04:06.356Z,15.20
2022-12-04T17:08:08.053Z,18.10
2022-12-04T17:12:09.738Z,15.80
2022-12-04T17:16:14.824Z,17.60
2022-12-04T17:20:18.525Z,22.00
2022-12-04T17:24:20.169Z,20.40
2022-12-04T17:28:21.851Z,18.20
2022-12-04T17:32:23.746Z,14.90
2022-12-04T17:36:27.775Z,12.70
2022-12-04T17:40:29.437Z,14.60
2022-12-04T17:44:31.128Z,15.70
2022-12-04T17:48:32.720Z,16.20
2022-12-04T17:52:34.400Z,13.90
2022-12-04T17:56:36.256Z,13.90
2022-12-04T18:00:39.142Z,13.90
2022-12-04T18:04:41.083Z,20.70
2022-12-04T18:09:38.236Z,20.70
2022-12-04T18:13:40.109Z,23.50
2022-12-04T18:18:20.596Z,23.50
2022-12-04T18:23:05.267Z,23.50
2022-12-04T18:28:50.376Z,23.50
2022-12-04T18:33:42.961Z,23.50
2022-12-04T18:37:44.642Z,23.70
2022-12-04T18:41:46.999Z,22.70
2022-12-04T18:45:59.401Z,20.90
2022-12-04T18:50:03.297Z,20.50
2022-12-04T18:54:11.444Z,22.30
2022-12-04T18:58:13.380Z,16.30
2022-12-04T19:03:27.943Z,16.30
2022-12-04T19:07:29.691Z,7.70
2022-12-04T19:11:32.038Z,8.80
2022-12-04T19:15:34.154Z,10.70
2022-12-04T19:19:35.836Z,11.30
2022-12-04T19:23:37.633Z,13.80
2022-12-04T19:27:39.409Z,17.20
2022-12-04T19:31:41.396Z,16.70
